Time;durP1;ratioP1;P1;durP2;ratioP2;P2;SDS_P1;SDS_P2;PMS_P1;PMS_P2;Temp;Humidity;BMP_temperature;BMP_pressure;BME280_temperature;BME280_humidity;BME280_pressure;Samples;Min_cycle;Max_cycle;Signal;HPM_P1;HPM_P2
2022/06/11 00:00:34;;;;;;;5.72;3.03;;;19.90;99.90;;;;;;5035926;28;20212;-81
2022/06/11 00:02:59;;;;;;;7.38;2.83;;;20.00;99.90;;;;;;5036825;28;20191;-84
2022/06/11 00:05:25;;;;;;;8.55;2.22;;;20.00;99.90;;;;;;5036674;28;20164;-81
2022/06/11 00:07:51;;;;;;;6.30;2.28;;;19.90;99.90;;;;;;5036411;28;20193;-82
2022/06/11 00:10:18;;;;;;;8.05;2.80;;;19.90;99.90;;;;;;5044560;28;20199;-80
2022/06/11 00:12:43;;;;;;;3.15;2.00;;;20.00;99.90;;;;;;5056141;28;20168;-79
2022/06/11 00:15:09;;;;;;;5.70;3.05;;;20.00;99.90;;;;;;5054777;28;20528;-78
2022/06/11 00:17:35;;;;;;;7.13;2.30;;;20.20;99.90;;;;;;5037255;28;20515;-83
2022/06/11 00:20:02;;;;;;;2.08;1.90;;;20.20;99.90;;;;;;5035225;28;20637;-80
2022/06/11 00:22:27;;;;;;;3.72;2.15;;;20.10;99.90;;;;;;5036300;28;20290;-80
2022/06/11 00:24:53;;;;;;;3.13;2.10;;;20.00;99.90;;;;;;5036774;28;20206;-84
2022/06/11 00:27:20;;;;;;;6.05;2.42;;;19.90;99.90;;;;;;5036582;28;20206;-84
2022/06/11 00:29:46;;;;;;;3.78;2.25;;;20.00;99.90;;;;;;5035054;28;20250;-83
2022/06/11 00:32:13;;;;;;;5.32;2.30;;;20.10;99.90;;;;;;5035846;28;20250;-82
2022/06/11 00:34:40;;;;;;;6.78;2.35;;;20.20;99.90;;;;;;5036334;28;20164;-78
2022/06/11 00:37:06;;;;;;;3.78;2.63;;;20.20;99.90;;;;;;5036281;28;20191;-78
2022/06/11 00:39:34;;;;;;;8.98;2.63;;;20.20;99.90;;;;;;5034829;28;20645;-81
2022/06/11 00:42:12;;;;;;;6.47;1.90;;;20.10;99.90;;;;;;5036281;28;20567;-81
2022/06/11 00:44:38;;;;;;;13.15;3.13;;;19.80;99.90;;;;;;5036123;28;20164;-80
2022/06/11 00:47:13;;;;;;;7.28;3.08;;;19.80;99.90;;;;;;5035191;28;20196;-79
2022/06/11 00:49:49;;;;;;;6.28;2.45;;;19.80;99.90;;;;;;5034781;28;20179;-83
2022/06/11 00:52:43;;;;;;;4.70;1.98;;;20.10;99.90;;;;;;5035408;28;20524;-80
2022/06/11 00:55:12;;;;;;;2.40;2.17;;;20.10;99.90;;;;;;5034419;28;20171;-79
2022/06/11 00:58:05;;;;;;;10.88;2.20;;;20.00;99.90;;;;;;5034372;28;20167;-79
2022/06/11 01:00:39;;;;;;;3.53;2.30;;;20.00;99.90;;;;;;5034603;28;20278;-78
2022/06/11 01:03:05;;;;;;;4.10;2.22;;;20.00;99.90;;;;;;5034772;28;20168;-78
2022/06/11 01:05:35;;;;;;;6.72;3.33;;;20.20;99.90;;;;;;5034523;28;20172;-79
2022/06/11 01:08:19;;;;;;;6.00;2.60;;;20.20;99.90;;;;;;5034510;28;20168;-79
2022/06/11 01:11:10;;;;;;;3.78;2.22;;;20.00;99.90;;;;;;5034298;28;20195;-78
2022/06/11 01:13:44;;;;;;;9.02;2.55;;;20.00;99.90;;;;;;5034563;28;20164;-78
2022/06/11 01:16:26;;;;;;;3.53;2.22;;;20.10;99.90;;;;;;5034382;28;20164;-78
2022/06/11 01:18:57;;;;;;;3.03;2.22;;;20.10;99.90;;;;;;5033325;28;20187;-79
2022/06/11 01:21:37;;;;;;;7.93;2.58;;;20.00;99.90;;;;;;5032807;28;20200;-78
2022/06/11 01:24:38;;;;;;;5.68;2.45;;;19.90;99.90;;;;;;5034331;28;20213;-78
2022/06/11 01:27:28;;;;;;;10.07;2.75;;;19.90;99.90;;;;;;5034324;28;20633;-79
2022/06/11 01:29:58;;;;;;;10.15;2.35;;;19.90;99.90;;;;;;5034119;28;20672;-79
2022/06/11 01:32:51;;;;;;;4.30;2.47;;;19.80;99.90;;;;;;5034182;28;20163;-80
2022/06/11 01:35:55;;;;;;;7.47;2.45;;;19.90;99.90;;;;;;5033977;28;20160;-79
2022/06/11 01:38:37;;;;;;;2.88;2.10;;;20.00;99.90;;;;;;5034156;28;20194;-79
2022/06/11 01:41:26;;;;;;;3.20;2.50;;;19.80;99.90;;;;;;5034010;28;20254;-79
2022/06/11 01:44:00;;;;;;;5.90;2.90;;;19.80;99.90;;;;;;5027387;28;20714;-80
2022/06/11 01:46:32;;;;;;;5.35;2.38;;;20.00;99.90;;;;;;5033989;28;20686;-79
2022/06/11 01:49:04;;;;;;;6.30;2.42;;;20.10;99.90;;;;;;5034785;28;20184;-80
2022/06/11 01:52:11;;;;;;;4.50;2.65;;;20.00;99.90;;;;;;5034102;28;20776;-78
2022/06/11 01:54:45;;;;;;;4.95;2.45;;;19.70;99.90;;;;;;4992477;28;20177;-79
2022/06/11 02:00:34;;;;;;;4.60;2.83;;;19.90;99.90;;;;;;5052199;28;20211;-81
2022/06/11 02:03:21;;;;;;;3.20;2.75;;;19.90;99.90;;;;;;5052731;28;20206;-81
2022/06/11 02:06:33;;;;;;;2.88;2.38;;;20.00;99.90;;;;;;5053356;28;20225;-81
2022/06/11 02:09:18;;;;;;;3.63;2.08;;;19.90;99.90;;;;;;5052155;28;20186;-81
2022/06/11 02:11:49;;;;;;;2.53;2.13;;;19.70;99.90;;;;;;5052481;28;20706;-81
2022/06/11 02:14:39;;;;;;;4.53;1.80;;;19.70;99.90;;;;;;5053588;28;20250;-82
2022/06/11 02:17:07;;;;;;;4.35;2.15;;;19.80;99.90;;;;;;5052124;28;20643;-81
2022/06/11 02:19:58;;;;;;;4.40;2.08;;;20.00;99.90;;;;;;5052678;28;20716;-81
2022/06/11 02:22:29;;;;;;;3.10;2.17;;;19.80;99.90;;;;;;5053278;28;20202;-82
2022/06/11 02:25:06;;;;;;;3.80;1.80;;;19.70;99.90;;;;;;5053304;28;20160;-82
2022/06/11 02:27:35;;;;;;;4.38;1.50;;;19.60;99.90;;;;;;5052369;28;20167;-82
2022/06/11 02:30:01;;;;;;;4.18;1.50;;;19.70;99.90;;;;;;5052052;28;20194;-82
2022/06/11 02:32:30;;;;;;;2.97;1.50;;;19.70;99.90;;;;;;5052133;28;20174;-82
2022/06/11 02:34:59;;;;;;;4.75;1.70;;;19.70;99.90;;;;;;5051975;28;20170;-81
2022/06/11 02:37:30;;;;;;;3.40;1.58;;;19.50;99.90;;;;;;5052831;28;20182;-81
2022/06/11 02:40:02;;;;;;;2.17;1.52;;;19.70;99.90;;;;;;5052849;28;20229;-82
2022/06/11 02:42:29;;;;;;;3.50;1.63;;;19.60;99.90;;;;;;5051848;28;20237;-82
2022/06/11 02:44:55;;;;;;;4.97;1.80;;;19.70;99.90;;;;;;5052932;28;20221;-81
2022/06/11 02:47:22;;;;;;;2.63;1.40;;;19.80;99.90;;;;;;5051818;28;20174;-82
2022/06/11 02:49:49;;;;;;;3.25;1.25;;;19.60;99.90;;;;;;5051532;28;20594;-82
2022/06/11 02:52:19;;;;;;;4.90;1.30;;;19.60;99.90;;;;;;5053000;28;20503;-82
2022/06/11 02:54:45;;;;;;;8.98;1.30;;;19.50;99.90;;;;;;5051788;28;20175;-81
2022/06/11 02:57:14;;;;;;;1.95;1.10;;;19.70;99.90;;;;;;5051898;28;20566;-81
2022/06/11 02:59:42;;;;;;;4.90;1.27;;;19.80;99.90;;;;;;5051702;28;20606;-83
2022/06/11 03:02:08;;;;;;;2.38;1.10;;;19.70;99.90;;;;;;5052543;28;20671;-82
2022/06/11 03:04:34;;;;;;;6.57;1.67;;;19.60;99.90;;;;;;5051277;28;20186;-83
2022/06/11 03:07:01;;;;;;;3.70;1.13;;;19.70;99.90;;;;;;5053048;28;20196;-82
2022/06/11 03:09:30;;;;;;;4.78;1.15;;;19.50;99.90;;;;;;5052583;28;20229;-83
2022/06/11 03:11:58;;;;;;;6.93;1.50;;;19.40;99.90;;;;;;5052966;28;20186;-82
2022/06/11 03:14:23;;;;;;;5.57;1.35;;;19.50;99.90;;;;;;5051265;28;20170;-82
2022/06/11 03:16:50;;;;;;;11.52;1.50;;;19.50;99.90;;;;;;5053935;28;20171;-82
2022/06/11 03:19:20;;;;;;;4.32;1.40;;;19.60;99.90;;;;;;5056613;28;20250;-82
2022/06/11 03:21:46;;;;;;;3.13;1.33;;;19.70;99.90;;;;;;5057049;28;20261;-82
2022/06/11 03:24:12;;;;;;;5.45;1.08;;;19.60;99.90;;;;;;5056576;28;20168;-81
2022/06/11 03:26:38;;;;;;;4.25;1.40;;;19.60;99.90;;;;;;5055522;28;20179;-82
2022/06/11 03:29:05;;;;;;;4.50;1.20;;;19.60;99.90;;;;;;5055146;28;20282;-82
2022/06/11 03:31:31;;;;;;;3.13;1.13;;;19.60;99.90;;;;;;5056475;28;20179;-82
2022/06/11 03:33:57;;;;;;;3.38;1.27;;;19.60;99.90;;;;;;5054882;28;20163;-82
2022/06/11 03:36:23;;;;;;;10.32;1.42;;;19.50;99.90;;;;;;5055875;28;20182;-83
2022/06/11 03:38:49;;;;;;;10.75;1.50;;;19.60;99.90;;;;;;5055128;28;20183;-82
2022/06/11 03:41:15;;;;;;;8.80;1.95;;;19.60;99.90;;;;;;5055013;28;20565;-83
2022/06/11 03:43:41;;;;;;;1.75;1.20;;;19.40;99.90;;;;;;5056092;28;20532;-82
2022/06/11 03:46:07;;;;;;;2.70;1.08;;;19.40;99.90;;;;;;5056020;28;20697;-82
2022/06/11 03:48:35;;;;;;;3.40;1.50;;;19.30;99.90;;;;;;5054415;28;20167;-83
2022/06/11 03:51:01;;;;;;;6.68;1.50;;;19.30;99.90;;;;;;5054592;28;20163;-82
2022/06/11 03:53:29;;;;;;;5.95;2.17;;;19.40;99.90;;;;;;5054666;28;20170;-82
2022/06/11 03:55:55;;;;;;;6.05;1.80;;;19.60;99.90;;;;;;5056068;28;20595;-82
2022/06/11 03:58:21;;;;;;;10.75;1.80;;;19.70;99.90;;;;;;5056188;28;20235;-82
2022/06/11 04:03:33;;;;;;;3.75;1.70;;;19.60;99.90;;;;;;5056915;28;20186;-82
2022/06/11 04:05:59;;;;;;;3.60;1.60;;;19.70;99.90;;;;;;5056341;28;20175;-82
2022/06/11 04:08:26;;;;;;;6.72;1.92;;;19.70;99.90;;;;;;5054272;28;20175;-81
2022/06/11 04:10:56;;;;;;;3.20;1.70;;;19.80;99.90;;;;;;5054167;28;20187;-82
2022/06/11 04:13:23;;;;;;;5.22;1.55;;;19.70;99.90;;;;;;5054377;28;20175;-82
2022/06/11 04:15:49;;;;;;;5.18;1.80;;;19.70;99.90;;;;;;5055338;28;20199;-81
2022/06/11 04:18:32;;;;;;;4.15;1.55;;;19.60;99.90;;;;;;5054154;28;20594;-81
2022/06/11 04:21:00;;;;;;;2.97;1.60;;;19.60;99.90;;;;;;5055114;28;20202;-81
2022/06/11 04:23:29;;;;;;;2.90;1.38;;;19.70;99.90;;;;;;5054033;28;20171;-81
2022/06/11 04:26:00;;;;;;;6.10;1.50;;;19.60;99.90;;;;;;5053752;28;20164;-81
2022/06/11 04:28:28;;;;;;;6.53;1.70;;;19.60;99.90;;;;;;5053573;28;20160;-81
2022/06/11 04:30:56;;;;;;;2.92;1.77;;;19.60;99.90;;;;;;5055144;28;20171;-81
2022/06/11 04:33:22;;;;;;;3.13;1.35;;;19.40;99.90;;;;;;5053895;28;20678;-83
2022/06/11 04:35:48;;;;;;;3.45;1.15;;;19.40;99.90;;;;;;5053604;28;20187;-82
2022/06/11 04:38:14;;;;;;;6.30;1.17;;;19.30;99.90;;;;;;5053667;28;20171;-82
2022/06/11 04:40:40;;;;;;;3.72;1.48;;;19.30;99.90;;;;;;5053660;28;20179;-83
2022/06/11 04:43:05;;;;;;;4.47;1.40;;;19.30;99.90;;;;;;5055075;28;20190;-82
2022/06/11 04:45:31;;;;;;;2.08;1.10;;;19.40;99.90;;;;;;5053598;28;20164;-82
2022/06/11 04:47:57;;;;;;;4.55;1.13;;;19.30;99.90;;;;;;5053546;28;20167;-82
2022/06/11 04:50:22;;;;;;;6.03;1.50;;;19.40;99.90;;;;;;5053131;28;20549;-82
2022/06/11 04:52:48;;;;;;;7.03;1.13;;;19.40;99.90;;;;;;5054682;28;20258;-82
2022/06/11 04:55:15;;;;;;;2.33;1.50;;;19.30;99.90;;;;;;5054769;28;20167;-86
2022/06/11 04:57:43;;;;;;;5.03;1.48;;;19.20;99.90;;;;;;5054632;28;20159;-82
2022/06/11 05:00:10;;;;;;;10.80;1.58;;;19.20;99.90;;;;;;5053405;28;20222;-82
2022/06/11 05:02:37;;;;;;;7.72;1.23;;;19.20;99.90;;;;;;5053203;28;20691;-82
2022/06/11 05:05:03;;;;;;;4.32;1.35;;;19.20;99.90;;;;;;5053341;28;20631;-82
2022/06/11 05:07:29;;;;;;;6.90;1.70;;;19.10;99.90;;;;;;5054984;28;20254;-82
2022/06/11 05:09:55;;;;;;;6.85;1.40;;;19.20;99.90;;;;;;5053230;28;20283;-82
2022/06/11 05:12:20;;;;;;;7.70;1.25;;;19.10;99.90;;;;;;5055086;28;20186;-82
2022/06/11 05:14:46;;;;;;;8.63;1.65;;;19.10;99.90;;;;;;5053248;28;20179;-82
2022/06/11 05:17:11;;;;;;;1.08;0.90;;;19.10;99.90;;;;;;5055554;28;20711;-82
2022/06/11 05:19:37;;;;;;;10.20;1.48;;;19.10;99.90;;;;;;5054604;28;20194;-83
2022/06/11 05:22:03;;;;;;;8.27;1.25;;;19.20;99.90;;;;;;5056043;28;20203;-82
2022/06/11 05:24:29;;;;;;;11.35;1.40;;;19.40;99.90;;;;;;5058516;28;20171;-81
2022/06/11 05:27:00;;;;;;;5.78;1.00;;;19.70;99.90;;;;;;5060713;28;20190;-81
2022/06/11 05:29:31;;;;;;;5.55;1.27;;;19.70;99.90;;;;;;5059569;28;20226;-81
2022/06/11 05:31:57;;;;;;;3.88;1.33;;;19.90;99.90;;;;;;5062490;28;20665;-82
2022/06/11 05:34:23;;;;;;;3.67;1.00;;;19.90;99.90;;;;;;5058109;28;20193;-82
2022/06/11 05:36:49;;;;;;;7.05;1.95;;;19.80;99.90;;;;;;5054565;28;20171;-82
2022/06/11 05:39:16;;;;;;;4.22;1.08;;;19.80;99.90;;;;;;5051962;28;20193;-82
2022/06/11 05:41:42;;;;;;;6.45;1.52;;;19.60;99.90;;;;;;5054055;28;20664;-82
2022/06/11 05:44:08;;;;;;;12.98;1.83;;;19.60;99.90;;;;;;5052784;28;20170;-82
2022/06/11 05:46:34;;;;;;;5.75;1.38;;;19.40;99.90;;;;;;5052234;28;20654;-82
2022/06/11 05:49:06;;;;;;;4.05;1.30;;;19.10;99.90;;;;;;5052161;28;20273;-82
2022/06/11 05:51:39;;;;;;;9.52;1.20;;;19.20;99.90;;;;;;5051857;28;20198;-82
2022/06/11 05:54:08;;;;;;;4.57;1.30;;;19.10;99.90;;;;;;5053451;28;20521;-82
2022/06/11 05:56:35;;;;;;;4.25;1.17;;;19.30;99.90;;;;;;5052055;28;20232;-82
2022/06/11 05:59:12;;;;;;;6.90;1.65;;;19.30;99.90;;;;;;5052052;28;20203;-82
2022/06/11 06:01:40;;;;;;;9.68;1.50;;;19.60;99.90;;;;;;5051865;28;20215;-82
2022/06/11 06:04:06;;;;;;;3.28;1.50;;;19.70;99.90;;;;;;5053402;28;20313;-82
2022/06/11 06:06:32;;;;;;;9.85;1.25;;;19.60;99.90;;;;;;5053286;28;20303;-82
2022/06/11 06:08:58;;;;;;;7.80;1.50;;;19.60;99.90;;;;;;5052084;28;20713;-82
2022/06/11 06:11:25;;;;;;;9.93;1.27;;;19.30;99.90;;;;;;5052228;28;20178;-82
2022/06/11 06:13:52;;;;;;;11.90;2.05;;;18.90;99.90;;;;;;5052120;28;20648;-82
2022/06/11 06:16:23;;;;;;;9.55;1.70;;;18.90;99.90;;;;;;5053078;28;20624;-82
2022/06/11 06:18:50;;;;;;;10.02;2.00;;;18.90;99.90;;;;;;5053077;28;20171;-82
2022/06/11 06:21:18;;;;;;;12.98;1.88;;;19.00;99.90;;;;;;5051831;28;20199;-82
2022/06/11 06:23:43;;;;;;;10.55;1.75;;;19.10;99.90;;;;;;5052856;28;20636;-82
2022/06/11 06:26:09;;;;;;;7.65;1.77;;;19.20;99.90;;;;;;5051584;28;20254;-82
2022/06/11 06:28:35;;;;;;;8.43;2.05;;;19.20;99.90;;;;;;5052819;28;20628;-84
2022/06/11 06:31:03;;;;;;;15.75;2.53;;;19.20;99.90;;;;;;5053005;28;20171;-82
2022/06/11 06:33:30;;;;;;;8.75;1.63;;;19.40;99.90;;;;;;5051744;28;20179;-82
2022/06/11 06:35:57;;;;;;;13.48;2.30;;;19.70;99.90;;;;;;5051773;28;20167;-82
2022/06/11 06:38:22;;;;;;;9.90;2.28;;;20.10;99.90;;;;;;5052844;28;20254;-82
2022/06/11 06:40:48;;;;;;;11.63;1.67;;;20.40;99.90;;;;;;5051262;28;20329;-82
2022/06/11 06:43:14;;;;;;;6.03;1.10;;;20.60;99.90;;;;;;5052825;28;20181;-82
2022/06/11 06:45:39;;;;;;;10.60;2.50;;;20.60;99.90;;;;;;5051504;28;20164;-82
2022/06/11 06:48:05;;;;;;;10.68;1.42;;;20.60;99.90;;;;;;5052547;28;20167;-82
2022/06/11 06:50:31;;;;;;;7.65;2.00;;;20.50;99.90;;;;;;5052246;28;20191;-82
2022/06/11 06:52:56;;;;;;;6.97;1.52;;;20.50;99.90;;;;;;5050757;28;20171;-82
2022/06/11 06:55:22;;;;;;;12.65;1.90;;;20.60;99.90;;;;;;5051161;28;20163;-82
2022/06/11 06:57:49;;;;;;;10.48;1.58;;;20.90;99.90;;;;;;5054742;28;20179;-82
2022/06/11 07:00:17;;;;;;;8.55;2.03;;;21.20;99.90;;;;;;5051924;28;20183;-82
2022/06/11 07:02:44;;;;;;;9.43;2.08;;;21.10;99.90;;;;;;5050987;28;21173;-82
2022/06/11 07:05:12;;;;;;;8.55;1.98;;;21.50;99.90;;;;;;5051296;28;20615;-83
2022/06/11 07:07:38;;;;;;;14.48;1.80;;;21.60;99.90;;;;;;5051059;28;20171;-82
2022/06/11 07:10:05;;;;;;;13.05;2.22;;;21.80;99.90;;;;;;5052239;28;20193;-81
2022/06/11 07:12:31;;;;;;;12.75;1.83;;;22.20;99.90;;;;;;5051093;28;20229;-81
2022/06/11 07:14:56;;;;;;;5.43;1.52;;;22.50;99.90;;;;;;5052377;28;20171;-81
2022/06/11 07:17:23;;;;;;;7.88;1.20;;;22.80;99.90;;;;;;5051210;28;20172;-81
2022/06/11 07:19:56;;;;;;;8.27;1.70;;;22.90;99.90;;;;;;5050831;28;20226;-81
2022/06/11 07:22:42;;;;;;;8.98;1.60;;;22.70;99.90;;;;;;5052297;28;20230;-81
2022/06/11 07:25:09;;;;;;;10.25;1.63;;;22.70;99.90;;;;;;5052132;28;20207;-82
2022/06/11 07:27:39;;;;;;;16.02;2.05;;;22.40;99.90;;;;;;5050958;28;20186;-82
2022/06/11 07:30:11;;;;;;;7.82;1.90;;;22.40;99.90;;;;;;5052189;28;20206;-82
2022/06/11 07:32:38;;;;;;;7.53;1.45;;;22.70;99.90;;;;;;5052282;28;20191;-82
2022/06/11 07:35:06;;;;;;;8.88;2.08;;;23.30;99.90;;;;;;5051984;28;20186;-82
2022/06/11 07:37:35;;;;;;;8.00;1.75;;;23.50;99.90;;;;;;5052309;28;20186;-82
2022/06/11 07:40:01;;;;;;;11.48;1.80;;;23.30;99.90;;;;;;5051628;28;20278;-82
2022/06/11 07:42:26;;;;;;;8.43;1.30;;;23.30;99.90;;;;;;5051151;28;20210;-82
2022/06/11 07:44:52;;;;;;;9.07;1.80;;;23.30;99.90;;;;;;5052103;28;20169;-82
2022/06/11 07:47:53;;;;;;;5.50;1.75;;;23.30;99.90;;;;;;5051974;28;20198;-82
2022/06/11 07:50:04;;;;;;;6.70;2.08;;;23.40;99.90;;;;;;5051395;28;20730;-82
2022/06/11 07:52:29;;;;;;;7.78;1.90;;;23.50;99.90;;;;;;5050888;28;20521;-82
2022/06/11 07:54:55;;;;;;;5.60;2.00;;;23.70;99.90;;;;;;5051961;28;20167;-82
2022/06/11 07:57:21;;;;;;;9.82;1.80;;;24.10;99.90;;;;;;5050610;28;20515;-82
2022/06/11 07:59:47;;;;;;;9.60;2.92;;;24.40;99.90;;;;;;5065266;22;20211;-78
2022/06/11 08:02:12;;;;;;;8.32;1.95;;;24.30;99.90;;;;;;5051689;28;20214;-78
2022/06/11 08:04:38;;;;;;;11.27;1.73;;;24.30;99.90;;;;;;5054030;28;20159;-78
2022/06/11 08:07:04;;;;;;;13.10;2.13;;;24.20;99.90;;;;;;5055416;28;20546;-77
2022/06/11 08:09:30;;;;;;;11.15;1.90;;;23.90;99.90;;;;;;5055203;28;20669;-78
2022/06/11 08:11:55;;;;;;;7.85;1.60;;;24.10;99.90;;;;;;5055270;28;20163;-81
2022/06/11 08:14:22;;;;;;;6.75;1.35;;;23.90;99.90;;;;;;5055276;28;20175;-77
2022/06/11 08:16:47;;;;;;;8.85;1.58;;;24.00;99.90;;;;;;5055139;28;20201;-79
2022/06/11 08:19:16;;;;;;;5.72;1.90;;;24.10;99.90;;;;;;5055361;28;20274;-78
2022/06/11 08:21:42;;;;;;;6.72;1.95;;;23.90;99.90;;;;;;5054145;28;20213;-81
2022/06/11 08:24:08;;;;;;;5.63;1.77;;;23.70;99.90;;;;;;5055569;28;20522;-80
2022/06/11 08:26:35;;;;;;;9.55;2.10;;;23.40;99.90;;;;;;5054016;28;20179;-80
2022/06/11 08:29:00;;;;;;;6.68;1.65;;;23.40;99.90;;;;;;5054849;28;20240;-78
2022/06/11 08:31:26;;;;;;;21.25;2.22;;;23.30;99.90;;;;;;5055081;28;20234;-77
2022/06/11 08:33:51;;;;;;;6.63;1.70;;;23.70;99.90;;;;;;5054778;28;20171;-77
2022/06/11 08:36:17;;;;;;;11.48;2.55;;;23.80;99.90;;;;;;5054884;28;20250;-79
2022/06/11 08:38:43;;;;;;;13.10;1.98;;;24.30;99.90;;;;;;5053683;28;20636;-77
2022/06/11 08:41:14;;;;;;;7.97;1.60;;;24.00;99.90;;;;;;5054995;28;20252;-78
2022/06/11 08:43:43;;;;;;;9.48;2.00;;;24.00;99.90;;;;;;5054431;28;20195;-78
2022/06/11 08:46:18;;;;;;;9.27;2.00;;;24.00;99.90;;;;;;5054532;28;20167;-77
2022/06/11 08:49:11;;;;;;;8.25;2.22;;;24.10;99.90;;;;;;5054436;28;20179;-77
2022/06/11 08:51:39;;;;;;;7.20;1.73;;;24.00;99.90;;;;;;5054282;28;20175;-78
2022/06/11 08:54:11;;;;;;;15.70;2.13;;;23.80;99.90;;;;;;5053791;28;20522;-81
2022/06/11 08:56:54;;;;;;;10.85;1.80;;;23.90;99.90;;;;;;5056518;28;20175;-79
2022/06/11 08:59:54;;;;;;;8.90;1.73;;;23.80;99.90;;;;;;5053900;28;20206;-82
2022/06/11 09:02:29;;;;;;;15.32;2.55;;;23.60;99.90;;;;;;5056204;28;20222;-83
2022/06/11 09:05:30;;;;;;;12.05;2.30;;;23.50;99.90;;;;;;5054941;28;20202;-82
2022/06/11 09:08:15;;;;;;;7.55;1.70;;;23.70;99.90;;;;;;5054085;28;20195;-79
2022/06/11 09:10:46;;;;;;;9.70;1.80;;;23.40;99.90;;;;;;5054582;28;20531;-80
2022/06/11 09:13:37;;;;;;;10.18;1.80;;;23.30;99.90;;;;;;5053240;28;20254;-82
2022/06/11 09:16:20;;;;;;;5.07;1.80;;;23.40;99.90;;;;;;5053126;28;20202;-82
2022/06/11 09:19:28;;;;;;;9.30;1.95;;;23.40;99.90;;;;;;5054392;28;20182;-79
2022/06/11 09:22:02;;;;;;;6.25;1.77;;;23.40;99.90;;;;;;5054278;28;20546;-78
2022/06/11 09:25:05;;;;;;;9.95;2.65;;;23.50;99.90;;;;;;5053436;28;20168;-86
2022/06/11 09:27:41;;;;;;;14.15;2.63;;;23.70;99.90;;;;;;5055041;28;20166;-82
2022/06/11 09:30:16;;;;;;;8.38;1.75;;;23.70;99.90;;;;;;5054930;28;20213;-87
2022/06/11 09:33:03;;;;;;;7.72;1.73;;;23.80;99.90;;;;;;5054488;28;20174;-82
2022/06/11 09:35:40;;;;;;;8.68;2.22;;;23.80;99.90;;;;;;5054280;28;20213;-86
2022/06/11 09:38:38;;;;;;;6.60;1.67;;;23.80;99.90;;;;;;5054440;28;20270;-88
2022/06/11 09:41:44;;;;;;;8.90;1.88;;;23.90;99.90;;;;;;5037171;28;20214;-88
2022/06/11 09:44:33;;;;;;;6.65;1.63;;;23.60;99.90;;;;;;5042433;28;20319;-85
2022/06/11 09:47:10;;;;;;;5.80;1.52;;;23.60;99.90;;;;;;5054694;28;20167;-88
2022/06/11 09:49:49;;;;;;;15.40;1.88;;;23.60;99.90;;;;;;5053454;28;20191;-82
2022/06/11 09:52:35;;;;;;;12.73;1.58;;;23.80;99.90;;;;;;5054574;28;20535;-89
2022/06/11 09:55:21;;;;;;;5.70;1.80;;;23.90;99.90;;;;;;5054526;28;20210;-84
2022/06/11 09:58:11;;;;;;;7.78;1.55;;;23.90;99.90;;;;;;5054135;28;20205;-87
2022/06/11 10:00:56;;;;;;;8.45;2.03;;;24.10;99.90;;;;;;5053985;28;20195;-85
2022/06/11 10:03:31;;;;;;;7.90;1.70;;;24.10;99.90;;;;;;5054090;28;20175;-88
2022/06/11 10:06:03;;;;;;;8.93;2.08;;;23.70;99.90;;;;;;5053930;28;20496;-89
2022/06/11 10:08:41;;;;;;;11.93;1.95;;;23.50;99.90;;;;;;5053736;28;20170;-87
2022/06/11 10:11:24;;;;;;;10.15;2.45;;;23.40;99.90;;;;;;5054691;28;20167;-88
2022/06/11 10:13:56;;;;;;;15.60;2.15;;;23.70;99.90;;;;;;5054144;28;20193;-89
2022/06/11 10:16:33;;;;;;;8.32;1.60;;;23.70;99.90;;;;;;5054116;28;20177;-88
2022/06/11 10:19:14;;;;;;;6.00;1.58;;;24.10;99.90;;;;;;5054076;28;20179;-86
2022/06/11 10:21:52;;;;;;;12.05;2.17;;;24.20;99.90;;;;;;5053509;28;20203;-86
2022/06/11 10:24:18;;;;;;;12.05;1.88;;;23.80;99.90;;;;;;5054292;28;20167;-85
2022/06/11 10:26:53;;;;;;;14.50;2.15;;;24.00;99.90;;;;;;5053164;28;20163;-83
2022/06/11 10:29:31;;;;;;;15.57;2.00;;;24.10;99.90;;;;;;5053940;28;20659;-88
2022/06/11 10:32:28;;;;;;;12.23;2.03;;;24.30;99.90;;;;;;5053941;28;20186;-86
2022/06/11 10:35:10;;;;;;;11.60;1.80;;;24.50;99.90;;;;;;5053671;28;20199;-89
2022/06/11 10:37:42;;;;;;;17.52;2.22;;;24.30;99.90;;;;;;5053780;28;20611;-88
2022/06/11 10:40:21;;;;;;;9.27;2.10;;;24.30;99.90;;;;;;5055022;28;20202;-87
2022/06/11 10:43:01;;;;;;;11.02;1.58;;;24.30;99.90;;;;;;5061476;28;20199;-88
2022/06/11 10:45:27;;;;;;;5.30;1.73;;;24.40;99.90;;;;;;5058268;28;20195;-87
2022/06/11 10:47:57;;;;;;;5.45;1.55;;;24.70;99.90;;;;;;5055766;28;20159;-87
2022/06/11 10:50:33;;;;;;;5.05;1.50;;;24.80;99.90;;;;;;5053568;28;20209;-89
2022/06/11 10:52:58;;;;;;;6.30;1.88;;;24.70;99.90;;;;;;5053440;28;20159;-89
2022/06/11 10:55:41;;;;;;;15.57;1.98;;;24.70;99.90;;;;;;5053440;28;20703;-88
2022/06/11 10:58:34;;;;;;;4.63;1.35;;;24.60;99.90;;;;;;5053326;28;20178;-88
2022/06/11 11:01:17;;;;;;;7.00;1.73;;;24.50;99.90;;;;;;5052062;28;20294;-79
2022/06/11 11:03:48;;;;;;;5.03;1.42;;;24.30;99.90;;;;;;5052328;28;20249;-79
2022/06/11 11:06:32;;;;;;;14.65;1.67;;;24.30;99.90;;;;;;5052595;28;20193;-78
2022/06/11 11:08:59;;;;;;;9.45;2.33;;;24.40;99.90;;;;;;5052113;28;20248;-77
2022/06/11 11:11:37;;;;;;;5.50;1.50;;;24.70;99.90;;;;;;5052248;28;20182;-78
2022/06/11 11:14:19;;;;;;;4.20;1.27;;;25.10;99.90;;;;;;5051813;28;20194;-78
2022/06/11 11:16:48;;;;;;;5.88;1.75;;;25.10;99.90;;;;;;5052203;28;20225;-78
2022/06/11 11:19:32;;;;;;;4.10;1.40;;;25.00;99.90;;;;;;5052230;28;20270;-78
2022/06/11 11:22:15;;;;;;;9.65;1.77;;;25.00;99.90;;;;;;5050724;28;20701;-78
2022/06/11 11:24:51;;;;;;;4.18;1.70;;;24.90;99.90;;;;;;5052160;28;20221;-80
2022/06/11 11:27:21;;;;;;;7.00;1.55;;;24.90;99.90;;;;;;5052290;28;20167;-78
2022/06/11 11:30:10;;;;;;;4.72;1.63;;;25.00;99.90;;;;;;5052106;28;20250;-78
2022/06/11 11:32:35;;;;;;;4.30;1.58;;;24.90;99.90;;;;;;5052008;28;20175;-80
2022/06/11 11:35:24;;;;;;;8.75;1.95;;;24.90;99.90;;;;;;5051673;28;20690;-79
2022/06/11 11:38:00;;;;;;;6.78;1.30;;;25.00;99.90;;;;;;5052573;28;20592;-78
2022/06/11 11:40:27;;;;;;;6.43;1.10;;;24.90;99.90;;;;;;5056112;28;20543;-78
2022/06/11 11:43:08;;;;;;;6.47;1.30;;;24.80;99.90;;;;;;5055775;28;20203;-78
2022/06/11 11:45:40;;;;;;;2.90;1.30;;;24.80;99.90;;;;;;5055954;28;20530;-78
2022/06/11 11:48:07;;;;;;;7.78;1.35;;;24.90;99.90;;;;;;5056016;28;20163;-78
2022/06/11 11:50:36;;;;;;;4.63;1.75;;;24.80;99.90;;;;;;5055423;28;20183;-78
2022/06/11 11:53:24;;;;;;;4.88;1.10;;;24.90;99.90;;;;;;5057329;28;20631;-79
2022/06/11 11:56:30;;;;;;;6.63;1.58;;;24.90;99.90;;;;;;5055787;28;20777;-79
2022/06/11 11:59:24;;;;;;;6.05;1.20;;;24.90;99.90;;;;;;5054345;28;20206;-80
2022/06/11 12:01:55;;;;;;;9.20;1.58;;;24.80;99.90;;;;;;5055620;28;20195;-79
2022/06/11 12:04:29;;;;;;;3.85;1.08;;;25.00;99.90;;;;;;5056303;28;20201;-78
2022/06/11 12:07:03;;;;;;;6.65;1.58;;;25.00;99.90;;;;;;5058051;28;20631;-82
2022/06/11 12:10:00;;;;;;;6.55;1.30;;;24.70;99.90;;;;;;5057757;28;20274;-79
2022/06/11 12:12:33;;;;;;;5.85;1.60;;;24.70;99.90;;;;;;5049901;28;20230;-80
2022/06/11 12:15:12;;;;;;;5.30;1.40;;;24.50;99.90;;;;;;5062722;28;20163;-78
2022/06/11 12:18:01;;;;;;;7.03;2.20;;;24.30;99.90;;;;;;5057878;28;20174;-78
2022/06/11 12:20:41;;;;;;;2.60;1.25;;;24.50;99.90;;;;;;5057975;28;20175;-79
2022/06/11 12:23:33;;;;;;;3.30;1.17;;;24.60;99.90;;;;;;5061570;28;20202;-77
2022/06/11 12:26:28;;;;;;;4.68;1.33;;;24.90;99.90;;;;;;5064545;28;20163;-77
2022/06/11 12:29:18;;;;;;;5.05;1.00;;;25.20;99.90;;;;;;5065082;28;20252;-77
2022/06/11 12:31:44;;;;;;;6.13;1.48;;;25.20;99.90;;;;;;5068214;28;20163;-77
2022/06/11 12:34:18;;;;;;;5.90;1.20;;;25.10;99.90;;;;;;5067422;28;20179;-77
2022/06/11 12:37:06;;;;;;;6.97;1.67;;;25.20;99.90;;;;;;5068701;28;20182;-77
2022/06/11 12:40:22;;;;;;;4.20;1.15;;;25.00;99.90;;;;;;5071151;28;20187;-79
2022/06/11 12:42:57;;;;;;;9.23;1.38;;;25.20;99.90;;;;;;5013473;28;20220;-80
2022/06/11 12:46:00;;;;;;;6.10;1.20;;;25.40;99.90;;;;;;5051180;28;20182;-80
2022/06/11 12:48:47;;;;;;;4.03;1.23;;;25.30;99.90;;;;;;5056136;28;20171;-79
2022/06/11 12:51:18;;;;;;;3.30;1.13;;;25.50;99.90;;;;;;5055224;28;20234;-81
2022/06/11 12:54:02;;;;;;;4.95;1.25;;;25.60;99.90;;;;;;5055453;28;20167;-80
2022/06/11 12:57:01;;;;;;;4.32;1.08;;;25.50;99.90;;;;;;5056276;28;20242;-83
2022/06/11 12:59:39;;;;;;;5.60;1.60;;;25.70;99.90;;;;;;5056355;28;20245;-80
2022/06/11 13:02:17;;;;;;;10.02;1.95;;;25.60;99.90;;;;;;5056692;28;20211;-84
2022/06/11 13:05:16;;;;;;;10.30;1.42;;;25.60;99.90;;;;;;5056622;28;20183;-84
2022/06/11 13:07:48;;;;;;;3.35;1.00;;;25.60;99.90;;;;;;5056486;28;20179;-80
2022/06/11 13:10:20;;;;;;;8.15;1.00;;;25.60;99.90;;;;;;5056402;28;20325;-82
2022/06/11 13:13:04;;;;;;;4.38;1.50;;;25.80;99.90;;;;;;5055757;28;20183;-82
2022/06/11 13:16:04;;;;;;;5.93;1.02;;;25.90;99.90;;;;;;5055241;28;20163;-87
2022/06/11 13:19:07;;;;;;;3.55;1.30;;;25.60;99.90;;;;;;5054860;28;20259;-85
2022/06/11 13:21:46;;;;;;;2.13;0.90;;;25.70;99.90;;;;;;5054771;28;20245;-85
2022/06/11 13:24:21;;;;;;;4.10;1.90;;;25.80;99.90;;;;;;5054818;28;20159;-83